createdAt,value
2018-04-06T00:00:43.796Z,100609
2018-04-06T00:03:09.968Z,100614
2018-04-06T00:05:36.187Z,100623
2018-04-06T00:08:02.400Z,100638
2018-04-06T00:10:28.608Z,100632
2018-04-06T00:12:54.780Z,100641
2018-04-06T00:15:20.977Z,100637
2018-04-06T00:17:47.172Z,100639
2018-04-06T00:20:14.104Z,100640
2018-04-06T00:22:40.303Z,100646
2018-04-06T00:25:06.525Z,100652
2018-04-06T00:27:32.704Z,100647
2018-04-06T00:29:58.895Z,100650
2018-04-06T00:32:25.132Z,100660
2018-04-06T00:34:51.364Z,100660
2018-04-06T00:37:17.560Z,100665
2018-04-06T00:39:43.760Z,100672
2018-04-06T00:42:09.932Z,100680
2018-04-06T00:44:36.100Z,100676
2018-04-06T00:47:03.011Z,100678
2018-04-06T00:49:29.205Z,100687
2018-04-06T00:51:55.390Z,100700
2018-04-06T00:54:22.334Z,100717
2018-04-06T00:56:49.245Z,100718
2018-04-06T00:59:15.428Z,100725
2018-04-06T01:01:41.576Z,100734
2018-04-06T01:04:07.807Z,100741
2018-04-06T01:06:34.004Z,100733
2018-04-06T01:09:00.951Z,100737
2018-04-06T01:11:27.880Z,100734
2018-04-06T01:13:54.835Z,100735
2018-04-06T01:16:21.787Z,100734
2018-04-06T01:18:48.716Z,100741
2018-04-06T01:21:15.612Z,100736
2018-04-06T01:23:41.828Z,100746
2018-04-06T01:26:08.019Z,100743
2018-04-06T01:28:34.934Z,100750
2018-04-06T01:31:01.156Z,100746
2018-04-06T01:33:27.379Z,100751
2018-04-06T01:35:53.620Z,100758
2018-04-06T01:38:19.818Z,100752
2018-04-06T01:40:46.024Z,100756
2018-04-06T01:43:12.224Z,100751
2018-04-06T01:45:38.427Z,100757
2018-04-06T01:48:04.664Z,100762
2018-04-06T01:50:30.863Z,100767
2018-04-06T01:52:57.108Z,100779
2018-04-06T01:55:24.033Z,100773
2018-04-06T01:57:50.257Z,100771
2018-04-06T02:00:16.485Z,100774
2018-04-06T02:02:42.696Z,100787
2018-04-06T02:05:08.907Z,100782
2018-04-06T02:07:35.856Z,100792
2018-04-06T02:10:02.772Z,100795
2018-04-06T02:12:29.002Z,100794
2018-04-06T02:14:55.215Z,100787
2018-04-06T02:17:21.430Z,100782
2018-04-06T02:19:47.648Z,100786
2018-04-06T02:22:13.892Z,100790
2018-04-06T02:24:40.238Z,100793
2018-04-06T02:27:06.301Z,100799
2018-04-06T02:29:33.255Z,100787
2018-04-06T02:31:59.468Z,100801
2018-04-06T02:34:25.697Z,100800
2018-04-06T02:36:52.648Z,100797
2018-04-06T02:39:19.577Z,100795
2018-04-06T02:41:45.744Z,100794
2018-04-06T02:44:11.969Z,100802
2018-04-06T02:46:38.172Z,100793
2018-04-06T02:49:04.359Z,100801
2018-04-06T02:51:30.564Z,100797
2018-04-06T02:53:56.744Z,100803
2018-04-06T02:56:22.918Z,100812
2018-04-06T02:58:49.093Z,100814
2018-04-06T03:01:15.319Z,100816
2018-04-06T03:03:42.280Z,100821
2018-04-06T03:06:09.216Z,100812
2018-04-06T03:08:35.424Z,100811
2018-04-06T03:11:01.604Z,100812
2018-04-06T03:13:27.787Z,100808
2018-04-06T03:15:53.951Z,100810
2018-04-06T03:18:20.906Z,100816
2018-04-06T03:20:47.112Z,100809
2018-04-06T03:23:14.088Z,100808
2018-04-06T03:25:40.254Z,100813
2018-04-06T03:28:06.431Z,100819
2018-04-06T03:30:32.669Z,100817
2018-04-06T03:32:58.852Z,100821
2018-04-06T03:35:25.048Z,100827
2018-04-06T03:37:51.295Z,100820
2018-04-06T03:40:17.448Z,100831
2018-04-06T03:42:44.473Z,100836
2018-04-06T03:45:10.680Z,100833
2018-04-06T03:47:36.880Z,100831
2018-04-06T03:50:03.085Z,100832
2018-04-06T03:52:30.047Z,100837
2018-04-06T03:54:56.228Z,100830
2018-04-06T03:57:22.432Z,100845
2018-04-06T03:59:48.623Z,100845
2018-04-06T04:02:15.563Z,100852
2018-04-06T04:04:42.513Z,100856
2018-04-06T04:07:09.463Z,100850
2018-04-06T04:09:35.673Z,100861
2018-04-06T04:12:02.612Z,100861
2018-04-06T04:14:28.844Z,100859
2018-04-06T04:16:55.748Z,100855
2018-04-06T04:19:21.953Z,100854
2018-04-06T04:21:48.180Z,100853
2018-04-06T04:24:14.383Z,100852
2018-04-06T04:26:40.613Z,100860
2018-04-06T04:29:07.552Z,100856
2018-04-06T04:31:34.487Z,100865
2018-04-06T04:34:00.675Z,100865
2018-04-06T04:36:26.892Z,100864
2018-04-06T04:38:53.096Z,100869
2018-04-06T04:41:19.292Z,100873
2018-04-06T04:43:45.470Z,100881
2018-04-06T04:46:11.665Z,100881
2018-04-06T04:48:37.856Z,100880
2018-04-06T04:51:04.053Z,100883
2018-04-06T04:53:30.256Z,100886
2018-04-06T04:55:56.421Z,100888
2018-04-06T04:58:22.645Z,100897
2018-04-06T05:00:48.851Z,100893
2018-04-06T05:03:30.408Z,100895
2018-04-06T05:05:56.621Z,100903
2018-04-06T05:08:22.827Z,100909
2018-04-06T05:10:49.046Z,100917
2018-04-06T05:13:15.224Z,100915
2018-04-06T05:15:41.419Z,100917
2018-04-06T05:18:07.577Z,100928
2018-04-06T05:20:33.742Z,100921
2018-04-06T05:22:59.956Z,100927
2018-04-06T05:25:26.171Z,100927
2018-04-06T05:27:53.124Z,100933
2018-04-06T05:30:20.043Z,100939
2018-04-06T05:32:46.205Z,100939
2018-04-06T05:35:12.401Z,100926
2018-04-06T05:37:38.606Z,100930
2018-04-06T05:40:04.776Z,100943
2018-04-06T05:42:31.750Z,100943
2018-04-06T05:44:57.976Z,100945
2018-04-06T05:47:24.172Z,100953
2018-04-06T05:49:51.128Z,100950
2018-04-06T05:52:18.084Z,100955
2018-04-06T05:54:44.302Z,100953
2018-04-06T05:57:10.526Z,100967
2018-04-06T05:59:37.464Z,100971
2018-04-06T06:02:04.437Z,100971
2018-04-06T06:04:30.641Z,100963
2018-04-06T06:06:57.595Z,100964
2018-04-06T06:09:23.759Z,100968
2018-04-06T06:11:49.928Z,100972
2018-04-06T06:14:16.159Z,100979
2018-04-06T06:16:42.360Z,100987
2018-04-06T06:19:08.551Z,100982
2018-04-06T06:21:34.748Z,100991
2018-04-06T06:24:00.967Z,100991
2018-04-06T06:26:27.189Z,101002
2018-04-06T06:28:53.403Z,101004
2018-04-06T06:31:19.628Z,101003
2018-04-06T06:33:45.845Z,101016
2018-04-06T06:36:12.025Z,101002
2018-04-06T06:38:38.956Z,101007
2018-04-06T06:41:05.164Z,101015
2018-04-06T06:43:31.372Z,101010
2018-04-06T06:45:57.567Z,101009
2018-04-06T06:48:23.732Z,101014
2018-04-06T06:50:49.933Z,101014
2018-04-06T06:53:16.173Z,101010
2018-04-06T06:55:42.400Z,101015
2018-04-06T06:58:08.593Z,101022
2018-04-06T07:00:35.527Z,101033
2018-04-06T07:03:02.461Z,101026
2018-04-06T07:05:28.707Z,101024
2018-04-06T07:07:55.664Z,101027
2018-04-06T07:10:22.600Z,101017
2018-04-06T07:12:49.527Z,101040
2018-04-06T07:15:15.724Z,101028
2018-04-06T07:17:41.908Z,101043
2018-04-06T07:20:08.820Z,101038
2018-04-06T07:22:34.988Z,101033
2018-04-06T07:25:01.155Z,101035
2018-04-06T07:27:27.383Z,101036
2018-04-06T07:29:53.568Z,101028
2018-04-06T07:32:19.762Z,101027
2018-04-06T07:34:45.967Z,101031
2018-04-06T07:37:12.158Z,101031
2018-04-06T07:39:38.340Z,101034
2018-04-06T07:42:06.043Z,101029
2018-04-06T07:44:32.238Z,101043
2018-04-06T07:46:58.435Z,101038
2018-04-06T07:49:24.667Z,101045
2018-04-06T07:51:50.863Z,101035
2018-04-06T07:54:17.075Z,101036
2018-04-06T07:56:44.064Z,101035
2018-04-06T07:59:10.272Z,101036
2018-04-06T08:01:36.492Z,101039
2018-04-06T08:04:02.690Z,101036
2018-04-06T08:06:28.879Z,101044
2018-04-06T08:08:55.059Z,101045
2018-04-06T08:11:22.008Z,101051
2018-04-06T08:13:48.989Z,101046
2018-04-06T08:16:15.196Z,101047
2018-04-06T08:18:41.396Z,101058
2018-04-06T08:21:07.597Z,101058
2018-04-06T08:23:33.820Z,101058
2018-04-06T08:26:00.024Z,101058
2018-04-06T08:28:26.224Z,101060
2018-04-06T08:30:53.187Z,101069
2018-04-06T08:33:19.405Z,101071
2018-04-06T08:35:45.611Z,101068
2018-04-06T08:38:11.798Z,101073
2018-04-06T08:40:38.043Z,101068
2018-04-06T08:43:04.259Z,101076
2018-04-06T08:45:30.461Z,101068
2018-04-06T08:47:56.660Z,101072
2018-04-06T08:50:23.586Z,101065
2018-04-06T08:52:49.807Z,101079
2018-04-06T08:55:15.996Z,101077
2018-04-06T08:57:42.209Z,101068
2018-04-06T09:00:08.388Z,101078
2018-04-06T09:02:34.565Z,101060
2018-04-06T09:05:04.071Z,101077
2018-04-06T09:07:30.301Z,101079
2018-04-06T09:09:56.491Z,101078
2018-04-06T09:12:22.715Z,101077
2018-04-06T09:14:48.932Z,101069
2018-04-06T09:17:15.152Z,101077
2018-04-06T09:19:41.344Z,101074
2018-04-06T09:22:07.516Z,101065
2018-04-06T09:24:33.704Z,101069
2018-04-06T09:26:59.896Z,101073
2018-04-06T09:29:26.827Z,101063
2018-04-06T09:31:53.025Z,101063
2018-04-06T09:34:19.216Z,101063
2018-04-06T09:36:45.435Z,101079
2018-04-06T09:39:12.337Z,101061
2018-04-06T09:41:38.560Z,101057
2018-04-06T09:44:04.698Z,101058
2018-04-06T09:46:30.928Z,101067
2018-04-06T09:48:57.145Z,101057
2018-04-06T09:51:23.377Z,101053
2018-04-06T09:53:49.577Z,101051
2018-04-06T09:56:15.786Z,101051
2018-04-06T09:58:41.980Z,101044
2018-04-06T10:01:08.159Z,101046
2018-04-06T10:03:34.352Z,101040
2018-04-06T10:06:01.292Z,101040
2018-04-06T10:08:27.460Z,101035
2018-04-06T10:10:53.711Z,101031
2018-04-06T10:13:19.939Z,101037
2018-04-06T10:15:46.143Z,101026
2018-04-06T10:18:12.328Z,101025
2018-04-06T10:20:42.433Z,101015
2018-04-06T10:23:08.620Z,101017
2018-04-06T10:25:34.805Z,101019
2018-04-06T10:28:01.011Z,101013
2018-04-06T10:30:27.207Z,101013
2018-04-06T10:32:53.395Z,101020
2018-04-06T10:35:20.352Z,101015
2018-04-06T10:37:46.524Z,101015
2018-04-06T10:40:12.715Z,101014
2018-04-06T10:42:38.872Z,101005
2018-04-06T10:45:05.116Z,101015
2018-04-06T10:47:31.360Z,101004
2018-04-06T10:49:57.563Z,101009
2018-04-06T10:55:46.874Z,100987
2018-04-06T10:58:26.802Z,101000
2018-04-06T11:00:53.021Z,100987
2018-04-06T11:03:19.317Z,100992
2018-04-06T11:06:00.060Z,100996
2018-04-06T11:08:26.256Z,100985
2018-04-06T11:11:04.440Z,100984
2018-04-06T11:13:54.925Z,100990
2018-04-06T11:16:21.202Z,100986
2018-04-06T11:18:47.373Z,100980
2018-04-06T11:21:27.677Z,100990
2018-04-06T11:24:06.271Z,100990
2018-04-06T11:26:32.472Z,100981
2018-04-06T11:29:06.276Z,100985
2018-04-06T11:31:35.300Z,100985
2018-04-06T11:34:01.467Z,100969
2018-04-06T11:39:35.769Z,100975
2018-04-06T11:42:01.989Z,100972
2018-04-06T11:44:28.159Z,100971
2018-04-06T11:46:55.864Z,100974
2018-04-06T11:49:46.489Z,100963
2018-04-06T11:52:12.656Z,100957
2018-04-06T11:54:38.873Z,100957
2018-04-06T11:57:05.051Z,100961
2018-04-06T11:59:31.256Z,100948
2018-04-06T12:01:57.457Z,100950
2018-04-06T12:04:23.688Z,100953
2018-04-06T12:06:49.848Z,100943
2018-04-06T12:09:16.812Z,100939
2018-04-06T12:11:42.991Z,100929
2018-04-06T12:14:09.204Z,100933
2018-04-06T12:16:35.425Z,100922
2018-04-06T12:19:01.611Z,100925
2018-04-06T12:21:28.534Z,100933
2018-04-06T12:23:54.740Z,100924
2018-04-06T12:26:20.956Z,100921
2018-04-06T12:28:47.159Z,100937
2018-04-06T12:31:13.375Z,100915
2018-04-06T12:33:40.304Z,100931
2018-04-06T12:36:07.234Z,100925
2018-04-06T12:38:33.387Z,100919
2018-04-06T12:41:00.308Z,100922
2018-04-06T12:43:26.521Z,100921
2018-04-06T12:45:52.770Z,100925
2018-04-06T12:48:18.975Z,100920
2018-04-06T12:50:45.175Z,100909
2018-04-06T12:53:11.395Z,100918
2018-04-06T12:55:37.619Z,100913
2018-04-06T12:58:03.814Z,100898
2018-04-06T13:00:30.043Z,100908
2018-04-06T13:02:56.979Z,100908
2018-04-06T13:05:23.156Z,100903
2018-04-06T13:07:49.377Z,100904
2018-04-06T13:10:38.528Z,100899
2018-04-06T13:13:05.476Z,100889
2018-04-06T13:15:32.443Z,100885
2018-04-06T13:17:58.637Z,100888
2018-04-06T13:20:49.885Z,100872
2018-04-06T13:23:21.716Z,100880
2018-04-06T13:25:48.640Z,100877
2018-04-06T13:28:46.748Z,100876
2018-04-06T13:31:12.956Z,100875
2018-04-06T13:33:43.041Z,100868
2018-04-06T13:36:09.256Z,100868
2018-04-06T13:38:35.447Z,100874
2018-04-06T13:41:03.816Z,100859
2018-04-06T13:43:30.771Z,100855
2018-04-06T13:45:57.715Z,100863
2018-04-06T13:48:24.643Z,100853
2018-04-06T13:50:51.601Z,100853
2018-04-06T13:53:18.556Z,100849
2018-04-06T13:55:44.797Z,100843
2018-04-06T13:58:10.984Z,100843
2018-04-06T14:00:37.227Z,100846
2018-04-06T14:03:04.192Z,100854
2018-04-06T14:05:30.406Z,100849
2018-04-06T14:07:57.345Z,100845
2018-04-06T14:10:24.270Z,100839
2018-04-06T14:12:50.476Z,100837
2018-04-06T14:15:16.676Z,100828
2018-04-06T14:17:42.871Z,100843
2018-04-06T14:20:09.834Z,100831
2018-04-06T14:22:36.019Z,100834
2018-04-06T14:25:02.259Z,100827
2018-04-06T14:27:28.464Z,100817
2018-04-06T14:29:54.706Z,100827
2018-04-06T14:32:20.941Z,100815
2018-04-06T14:34:47.172Z,100814
2018-04-06T14:37:13.376Z,100816
2018-04-06T14:39:39.560Z,100813
2018-04-06T14:42:05.788Z,100808
2018-04-06T14:44:32.722Z,100807
2018-04-06T14:46:59.656Z,100810
2018-04-06T14:49:25.851Z,100799
2018-04-06T14:51:52.041Z,100796
2018-04-06T14:54:18.236Z,100808
2018-04-06T14:56:44.436Z,100797
2018-04-06T14:59:10.652Z,100796
2018-04-06T15:01:37.548Z,100802
2018-04-06T15:04:04.492Z,100794
2018-04-06T15:06:31.449Z,100797
2018-04-06T15:08:58.388Z,100793
2018-04-06T15:11:24.585Z,100802
2018-04-06T15:13:50.782Z,100802
2018-04-06T15:16:16.968Z,100795
2018-04-06T15:18:43.900Z,100793
2018-04-06T15:21:10.137Z,100797
2018-04-06T15:23:36.339Z,100788
2018-04-06T15:26:02.515Z,100795
2018-04-06T15:28:28.701Z,100781
2018-04-06T15:30:54.926Z,100785
2018-04-06T15:33:21.107Z,100784
2018-04-06T15:35:47.303Z,100783
2018-04-06T15:38:13.510Z,100782
2018-04-06T15:40:39.675Z,100774
2018-04-06T15:43:06.605Z,100774
2018-04-06T15:45:33.500Z,100775
2018-04-06T15:47:59.776Z,100772
2018-04-06T15:50:25.972Z,100777
2018-04-06T15:52:52.148Z,100792
2018-04-06T15:55:19.126Z,100776
2018-04-06T15:57:46.075Z,100783
2018-04-06T16:00:12.280Z,100769
2018-04-06T16:02:38.500Z,100772
2018-04-06T16:05:04.679Z,100764
2018-04-06T16:07:30.900Z,100762
2018-04-06T16:09:57.071Z,100762
2018-04-06T16:12:24.000Z,100757
2018-04-06T16:14:50.208Z,100762
2018-04-06T16:17:16.423Z,100754
2018-04-06T16:19:43.501Z,100761
2018-04-06T16:22:09.708Z,100761
2018-04-06T16:24:35.907Z,100754
2018-04-06T16:27:02.081Z,100759
2018-04-06T16:29:32.252Z,100760
2018-04-06T16:31:58.467Z,100757
2018-04-06T16:34:24.655Z,100741
2018-04-06T16:36:50.847Z,100751
2018-04-06T16:39:17.028Z,100744
2018-04-06T16:41:43.229Z,100743
2018-04-06T16:44:09.455Z,100745
2018-04-06T16:46:35.652Z,100753
2018-04-06T16:49:01.797Z,100754
2018-04-06T16:51:28.090Z,100751
2018-04-06T16:53:54.350Z,100754
2018-04-06T16:56:20.544Z,100750
2018-04-06T16:58:47.539Z,100745
2018-04-06T17:01:13.699Z,100735
2018-04-06T17:03:40.628Z,100727
2018-04-06T17:06:06.820Z,100724
2018-04-06T17:08:33.015Z,100729
2018-04-06T17:10:59.924Z,100725
2018-04-06T17:13:26.152Z,100732
2018-04-06T17:15:52.372Z,100716
2018-04-06T17:18:18.551Z,100721
2018-04-06T17:20:44.719Z,100723
2018-04-06T17:23:10.908Z,100719
2018-04-06T17:25:37.215Z,100721
2018-04-06T17:28:03.348Z,100715
2018-04-06T17:30:30.283Z,100713
2018-04-06T17:32:56.481Z,100714
2018-04-06T17:35:22.676Z,100720
2018-04-06T17:37:48.876Z,100730
2018-04-06T17:40:15.787Z,100719
2018-04-06T17:42:41.992Z,100730
2018-04-06T17:45:08.187Z,100729
2018-04-06T17:47:35.129Z,100727
2018-04-06T17:50:02.042Z,100724
2018-04-06T17:52:29.000Z,100731
2018-04-06T17:54:55.193Z,100730
2018-04-06T17:57:21.360Z,100737
2018-04-06T17:59:48.332Z,100730
2018-04-06T18:02:14.516Z,100742
2018-04-06T18:04:40.687Z,100741
2018-04-06T18:07:06.876Z,100749
2018-04-06T18:09:33.072Z,100748
2018-04-06T18:11:59.267Z,100752
2018-04-06T18:14:26.216Z,100744
2018-04-06T18:16:52.436Z,100751
2018-04-06T18:19:19.385Z,100753
2018-04-06T18:21:46.304Z,100752
2018-04-06T18:24:12.492Z,100756
2018-04-06T18:26:38.687Z,100756
2018-04-06T18:29:05.592Z,100758
2018-04-06T18:31:32.532Z,100757
2018-04-06T18:33:58.739Z,100766
2018-04-06T18:36:24.915Z,100771
2018-04-06T18:38:51.868Z,100786
2018-04-06T18:41:18.828Z,100790
2018-04-06T18:43:45.032Z,100787
2018-04-06T18:46:11.955Z,100781
2018-04-06T18:48:38.144Z,100784
2018-04-06T18:51:04.352Z,100787
2018-04-06T18:53:30.600Z,100779
2018-04-06T18:55:56.803Z,100769
2018-04-06T18:58:23.727Z,100772
2018-04-06T19:00:50.691Z,100779
2018-04-06T19:03:17.632Z,100770
2018-04-06T19:05:44.582Z,100786
2018-04-06T19:08:11.504Z,100783
2018-04-06T19:10:37.716Z,100790
2018-04-06T19:13:03.928Z,100780
2018-04-06T19:15:30.144Z,100787
2018-04-06T19:17:56.344Z,100771
2018-04-06T19:20:22.561Z,100775
2018-04-06T19:22:49.499Z,100782
2018-04-06T19:25:16.440Z,100785
2018-04-06T19:27:43.396Z,100774
2018-04-06T19:30:10.339Z,100763
2018-04-06T19:32:37.304Z,100772
2018-04-06T19:35:03.484Z,100761
2018-04-06T19:37:29.681Z,100766
2018-04-06T19:39:55.876Z,100759
2018-04-06T19:42:22.869Z,100753
2018-04-06T19:44:49.748Z,100752
2018-04-06T19:47:15.956Z,100754
2018-04-06T19:49:42.159Z,100736
2018-04-06T19:52:08.359Z,100736
2018-04-06T19:54:35.300Z,100747
2018-04-06T19:57:02.224Z,100744
2018-04-06T19:59:28.419Z,100741
2018-04-06T20:01:54.580Z,100738
2018-04-06T20:04:21.500Z,100740
2018-04-06T20:06:49.178Z,100733
2018-04-06T20:09:15.405Z,100733
2018-04-06T20:11:41.628Z,100736
2018-04-06T20:14:07.852Z,100738
2018-04-06T20:16:34.044Z,100742
2018-04-06T20:19:00.267Z,100747
2018-04-06T20:21:26.468Z,100738
2018-04-06T20:23:53.400Z,100733
2018-04-06T20:26:19.568Z,100734
2018-04-06T20:28:45.739Z,100720
2018-04-06T20:31:11.959Z,100727
2018-04-06T20:33:38.141Z,100731
2018-04-06T20:36:04.323Z,100728
2018-04-06T20:38:30.496Z,100719
2018-04-06T20:40:56.712Z,100722
2018-04-06T20:43:22.912Z,100716
2018-04-06T20:45:49.091Z,100714
2018-04-06T20:48:15.289Z,100719
2018-04-06T20:50:42.196Z,100722
2018-04-06T20:53:08.425Z,100720
2018-04-06T20:55:34.587Z,100712
2018-04-06T20:58:01.516Z,100708
2018-04-06T21:00:29.196Z,100704
2018-04-06T21:02:56.152Z,100696
2018-04-06T21:05:23.072Z,100697
2018-04-06T21:07:49.259Z,100701
2018-04-06T21:10:15.448Z,100698
2018-04-06T21:12:42.376Z,100692
2018-04-06T21:15:29.592Z,100692
2018-04-06T21:17:55.791Z,100690
2018-04-06T21:20:22.015Z,100689
2018-04-06T21:25:55.295Z,100686
2018-04-06T21:28:21.524Z,100686
2018-04-06T21:30:47.765Z,100683
2018-04-06T21:33:22.283Z,100681
2018-04-06T21:35:48.491Z,100680
2018-04-06T21:38:22.316Z,100673
2018-04-06T21:40:48.509Z,100667
2018-04-06T21:43:14.728Z,100669
2018-04-06T21:45:40.960Z,100666
2018-04-06T21:48:07.183Z,100662
2018-04-06T21:50:41.292Z,100659
2018-04-06T21:53:07.508Z,100659
2018-04-06T21:55:33.761Z,100650
2018-04-06T21:58:00.011Z,100650
2018-04-06T22:03:37.087Z,100646
2018-04-06T22:06:03.309Z,100642
2018-04-06T22:11:36.185Z,100643
2018-04-06T22:14:02.384Z,100637
2018-04-06T22:16:29.345Z,100622
2018-04-06T22:19:18.009Z,100638
2018-04-06T22:21:44.220Z,100640
2018-04-06T22:24:10.428Z,100634
2018-04-06T22:26:37.392Z,100623
2018-04-06T22:29:03.608Z,100622
2018-04-06T22:31:50.078Z,100638
2018-04-06T22:34:24.587Z,100637
2018-04-06T22:36:50.903Z,100627
2018-04-06T22:39:30.788Z,100627
2018-04-06T22:41:56.980Z,100616
2018-04-06T22:44:23.296Z,100611
2018-04-06T22:46:49.507Z,100605
2018-04-06T22:49:26.205Z,100607
2018-04-06T22:51:52.437Z,100611
2018-04-06T22:54:18.627Z,100600
2018-04-06T22:56:45.599Z,100600
2018-04-06T22:59:15.601Z,100604
2018-04-06T23:01:41.836Z,100610
2018-04-06T23:04:21.936Z,100605
2018-04-06T23:06:53.988Z,100600
2018-04-06T23:09:41.752Z,100601
2018-04-06T23:12:07.960Z,100600
2018-04-06T23:14:34.172Z,100590
2018-04-06T23:17:00.369Z,100587
2018-04-06T23:19:26.585Z,100591
2018-04-06T23:21:53.520Z,100578
2018-04-06T23:24:19.721Z,100568
2018-04-06T23:26:45.932Z,100569
2018-04-06T23:29:12.165Z,100570
2018-04-06T23:31:38.367Z,100552
2018-04-06T23:34:04.613Z,100555
2018-04-06T23:36:30.831Z,100561
2018-04-06T23:38:57.059Z,100550
2018-04-06T23:41:23.236Z,100550
2018-04-06T23:43:49.462Z,100554
2018-04-06T23:46:15.656Z,100546
2018-04-06T23:48:41.855Z,100537
2018-04-06T23:51:08.032Z,100543
2018-04-06T23:53:34.215Z,100538
2018-04-06T23:56:00.393Z,100543
